sensor_id;sensor_type;location;lat;lon;timestamp;P1;durP1;ratioP1;P2;durP2;ratioP2
26906;SDS011;14472;56.880;16.658;2023-12-20T00:01:04;8.17;;;1.43;;
26906;SDS011;14472;56.880;16.658;2023-12-20T00:03:30;8.70;;;1.43;;
26906;SDS011;14472;56.880;16.658;2023-12-20T00:05:56;7.70;;;1.30;;
26906;SDS011;14472;56.880;16.658;2023-12-20T00:08:21;7.17;;;1.03;;
26906;SDS011;14472;56.880;16.658;2023-12-20T00:10:47;5.07;;;1.17;;
26906;SDS011;14472;56.880;16.658;2023-12-20T00:13:13;9.43;;;1.50;;
26906;SDS011;14472;56.880;16.658;2023-12-20T00:15:39;10.13;;;1.47;;
26906;SDS011;14472;56.880;16.658;2023-12-20T00:18:04;8.30;;;1.90;;
26906;SDS011;14472;56.880;16.658;2023-12-20T00:20:30;3.80;;;1.23;;
26906;SDS011;14472;56.880;16.658;2023-12-20T00:22:56;4.10;;;1.50;;
26906;SDS011;14472;56.880;16.658;2023-12-20T00:25:25;7.63;;;1.40;;
26906;SDS011;14472;56.880;16.658;2023-12-20T00:27:51;8.10;;;1.50;;
26906;SDS011;14472;56.880;16.658;2023-12-20T00:30:17;10.50;;;1.50;;
26906;SDS011;14472;56.880;16.658;2023-12-20T00:32:43;4.23;;;1.40;;
26906;SDS011;14472;56.880;16.658;2023-12-20T00:35:14;7.70;;;1.33;;
26906;SDS011;14472;56.880;16.658;2023-12-20T00:37:40;8.10;;;1.20;;
26906;SDS011;14472;56.880;16.658;2023-12-20T00:40:07;7.93;;;1.47;;
26906;SDS011;14472;56.880;16.658;2023-12-20T00:42:33;8.83;;;1.60;;
26906;SDS011;14472;56.880;16.658;2023-12-20T00:44:59;6.77;;;1.70;;
26906;SDS011;14472;56.880;16.658;2023-12-20T00:47:25;4.57;;;1.10;;
26906;SDS011;14472;56.880;16.658;2023-12-20T00:49:51;7.50;;;1.27;;
26906;SDS011;14472;56.880;16.658;2023-12-20T00:52:18;3.73;;;1.27;;
26906;SDS011;14472;56.880;16.658;2023-12-20T00:54:44;9.00;;;2.40;;
26906;SDS011;14472;56.880;16.658;2023-12-20T00:57:10;6.60;;;1.67;;
26906;SDS011;14472;56.880;16.658;2023-12-20T00:59:36;5.13;;;1.30;;
26906;SDS011;14472;56.880;16.658;2023-12-20T01:02:01;10.07;;;1.60;;
26906;SDS011;14472;56.880;16.658;2023-12-20T01:04:27;5.03;;;1.40;;
26906;SDS011;14472;56.880;16.658;2023-12-20T01:06:53;5.83;;;1.20;;
26906;SDS011;14472;56.880;16.658;2023-12-20T01:09:19;5.33;;;1.40;;
26906;SDS011;14472;56.880;16.658;2023-12-20T01:11:44;10.50;;;1.47;;
26906;SDS011;14472;56.880;16.658;2023-12-20T01:14:13;4.13;;;1.13;;
26906;SDS011;14472;56.880;16.658;2023-12-20T01:16:39;6.03;;;2.13;;
26906;SDS011;14472;56.880;16.658;2023-12-20T01:19:05;4.10;;;1.30;;
26906;SDS011;14472;56.880;16.658;2023-12-20T01:21:30;5.60;;;1.40;;
26906;SDS011;14472;56.880;16.658;2023-12-20T01:23:56;3.73;;;1.17;;
26906;SDS011;14472;56.880;16.658;2023-12-20T01:26:22;8.00;;;1.63;;
26906;SDS011;14472;56.880;16.658;2023-12-20T01:28:47;2.87;;;0.80;;
26906;SDS011;14472;56.880;16.658;2023-12-20T01:31:13;3.90;;;1.03;;
26906;SDS011;14472;56.880;16.658;2023-12-20T01:33:39;6.73;;;1.33;;
26906;SDS011;14472;56.880;16.658;2023-12-20T01:36:04;7.60;;;1.53;;
26906;SDS011;14472;56.880;16.658;2023-12-20T01:38:30;8.57;;;1.67;;
26906;SDS011;14472;56.880;16.658;2023-12-20T01:40:56;5.97;;;1.23;;
26906;SDS011;14472;56.880;16.658;2023-12-20T01:43:21;4.77;;;1.27;;
26906;SDS011;14472;56.880;16.658;2023-12-20T01:45:47;6.27;;;1.23;;
26906;SDS011;14472;56.880;16.658;2023-12-20T01:48:13;7.03;;;1.10;;
26906;SDS011;14472;56.880;16.658;2023-12-20T01:50:40;5.37;;;1.37;;
26906;SDS011;14472;56.880;16.658;2023-12-20T01:53:08;7.77;;;1.23;;
26906;SDS011;14472;56.880;16.658;2023-12-20T01:55:36;7.67;;;1.20;;
26906;SDS011;14472;56.880;16.658;2023-12-20T01:58:04;4.93;;;1.20;;
26906;SDS011;14472;56.880;16.658;2023-12-20T02:00:31;11.70;;;2.07;;
26906;SDS011;14472;56.880;16.658;2023-12-20T02:02:57;9.80;;;1.53;;
26906;SDS011;14472;56.880;16.658;2023-12-20T02:05:26;4.23;;;1.13;;
26906;SDS011;14472;56.880;16.658;2023-12-20T02:07:53;3.63;;;1.40;;
26906;SDS011;14472;56.880;16.658;2023-12-20T02:10:18;5.87;;;1.70;;
26906;SDS011;14472;56.880;16.658;2023-12-20T02:12:44;3.97;;;1.00;;
26906;SDS011;14472;56.880;16.658;2023-12-20T02:15:10;6.13;;;1.00;;
26906;SDS011;14472;56.880;16.658;2023-12-20T02:17:36;6.93;;;1.30;;
26906;SDS011;14472;56.880;16.658;2023-12-20T02:20:03;6.53;;;1.17;;
26906;SDS011;14472;56.880;16.658;2023-12-20T02:22:30;9.80;;;1.60;;
26906;SDS011;14472;56.880;16.658;2023-12-20T02:24:56;5.77;;;1.00;;
26906;SDS011;14472;56.880;16.658;2023-12-20T02:27:22;4.20;;;1.20;;
26906;SDS011;14472;56.880;16.658;2023-12-20T02:29:48;6.70;;;1.30;;
26906;SDS011;14472;56.880;16.658;2023-12-20T02:32:15;3.50;;;1.17;;
26906;SDS011;14472;56.880;16.658;2023-12-20T02:34:42;11.73;;;1.30;;
26906;SDS011;14472;56.880;16.658;2023-12-20T02:37:08;5.17;;;1.07;;
26906;SDS011;14472;56.880;16.658;2023-12-20T02:39:33;5.67;;;1.63;;
26906;SDS011;14472;56.880;16.658;2023-12-20T02:41:59;3.63;;;1.17;;
26906;SDS011;14472;56.880;16.658;2023-12-20T02:44:25;3.60;;;1.03;;
26906;SDS011;14472;56.880;16.658;2023-12-20T02:46:50;5.87;;;1.20;;
26906;SDS011;14472;56.880;16.658;2023-12-20T02:49:16;4.70;;;1.00;;
26906;SDS011;14472;56.880;16.658;2023-12-20T02:51:42;5.17;;;2.33;;
26906;SDS011;14472;56.880;16.658;2023-12-20T02:54:07;3.60;;;1.07;;
26906;SDS011;14472;56.880;16.658;2023-12-20T02:56:33;4.23;;;1.10;;
26906;SDS011;14472;56.880;16.658;2023-12-20T02:58:59;4.60;;;1.17;;
26906;SDS011;14472;56.880;16.658;2023-12-20T03:01:24;4.40;;;1.27;;
26906;SDS011;14472;56.880;16.658;2023-12-20T03:03:51;9.37;;;1.67;;
26906;SDS011;14472;56.880;16.658;2023-12-20T03:06:17;4.67;;;1.23;;
26906;SDS011;14472;56.880;16.658;2023-12-20T03:08:44;5.97;;;1.20;;
26906;SDS011;14472;56.880;16.658;2023-12-20T03:11:09;4.43;;;1.03;;
26906;SDS011;14472;56.880;16.658;2023-12-20T03:13:35;4.13;;;1.00;;
26906;SDS011;14472;56.880;16.658;2023-12-20T03:16:01;2.20;;;1.03;;
26906;SDS011;14472;56.880;16.658;2023-12-20T03:18:32;7.40;;;1.70;;
26906;SDS011;14472;56.880;16.658;2023-12-20T03:20:58;4.37;;;1.43;;
26906;SDS011;14472;56.880;16.658;2023-12-20T03:23:23;5.97;;;1.50;;
26906;SDS011;14472;56.880;16.658;2023-12-20T03:25:49;3.63;;;1.23;;
26906;SDS011;14472;56.880;16.658;2023-12-20T03:28:15;2.83;;;1.03;;
26906;SDS011;14472;56.880;16.658;2023-12-20T03:30:41;8.40;;;1.33;;
26906;SDS011;14472;56.880;16.658;2023-12-20T03:33:06;9.57;;;1.33;;
26906;SDS011;14472;56.880;16.658;2023-12-20T03:35:32;6.17;;;1.37;;
26906;SDS011;14472;56.880;16.658;2023-12-20T03:37:58;3.60;;;1.73;;
26906;SDS011;14472;56.880;16.658;2023-12-20T03:40:25;4.83;;;1.40;;
26906;SDS011;14472;56.880;16.658;2023-12-20T03:42:51;5.00;;;1.20;;
26906;SDS011;14472;56.880;16.658;2023-12-20T03:45:16;8.50;;;1.27;;
26906;SDS011;14472;56.880;16.658;2023-12-20T03:47:42;4.60;;;1.80;;
26906;SDS011;14472;56.880;16.658;2023-12-20T03:50:08;6.97;;;1.13;;
26906;SDS011;14472;56.880;16.658;2023-12-20T03:52:33;6.70;;;1.00;;
26906;SDS011;14472;56.880;16.658;2023-12-20T03:54:59;6.13;;;1.20;;
26906;SDS011;14472;56.880;16.658;2023-12-20T03:57:25;4.33;;;1.23;;
26906;SDS011;14472;56.880;16.658;2023-12-20T03:59:50;7.57;;;1.30;;
26906;SDS011;14472;56.880;16.658;2023-12-20T04:02:16;4.43;;;1.20;;
26906;SDS011;14472;56.880;16.658;2023-12-20T04:04:43;3.67;;;1.30;;
26906;SDS011;14472;56.880;16.658;2023-12-20T04:07:08;10.00;;;1.73;;
26906;SDS011;14472;56.880;16.658;2023-12-20T04:09:34;8.37;;;1.20;;
26906;SDS011;14472;56.880;16.658;2023-12-20T04:12:00;7.17;;;1.10;;
26906;SDS011;14472;56.880;16.658;2023-12-20T04:14:26;9.67;;;1.27;;
26906;SDS011;14472;56.880;16.658;2023-12-20T04:16:52;6.70;;;1.20;;
26906;SDS011;14472;56.880;16.658;2023-12-20T04:19:18;7.13;;;1.40;;
26906;SDS011;14472;56.880;16.658;2023-12-20T04:21:44;3.57;;;1.17;;
26906;SDS011;14472;56.880;16.658;2023-12-20T04:24:09;6.93;;;1.70;;
26906;SDS011;14472;56.880;16.658;2023-12-20T04:26:35;3.23;;;1.33;;
26906;SDS011;14472;56.880;16.658;2023-12-20T04:29:01;6.43;;;1.97;;
26906;SDS011;14472;56.880;16.658;2023-12-20T04:31:27;5.63;;;1.50;;
26906;SDS011;14472;56.880;16.658;2023-12-20T04:33:52;5.77;;;1.07;;
26906;SDS011;14472;56.880;16.658;2023-12-20T04:36:18;4.60;;;1.20;;
26906;SDS011;14472;56.880;16.658;2023-12-20T04:38:44;4.60;;;1.60;;
26906;SDS011;14472;56.880;16.658;2023-12-20T04:41:09;5.03;;;1.40;;
26906;SDS011;14472;56.880;16.658;2023-12-20T04:43:35;5.10;;;1.47;;
26906;SDS011;14472;56.880;16.658;2023-12-20T04:46:01;3.20;;;0.90;;
26906;SDS011;14472;56.880;16.658;2023-12-20T04:48:27;5.20;;;1.20;;
26906;SDS011;14472;56.880;16.658;2023-12-20T04:50:53;6.77;;;1.30;;
26906;SDS011;14472;56.880;16.658;2023-12-20T04:53:18;4.80;;;1.47;;
26906;SDS011;14472;56.880;16.658;2023-12-20T04:55:44;3.37;;;1.10;;
26906;SDS011;14472;56.880;16.658;2023-12-20T04:58:10;4.40;;;1.27;;
26906;SDS011;14472;56.880;16.658;2023-12-20T05:00:35;6.90;;;1.50;;
26906;SDS011;14472;56.880;16.658;2023-12-20T05:03:01;4.57;;;1.00;;
26906;SDS011;14472;56.880;16.658;2023-12-20T05:05:26;6.30;;;2.30;;
26906;SDS011;14472;56.880;16.658;2023-12-20T05:07:52;5.57;;;1.30;;
26906;SDS011;14472;56.880;16.658;2023-12-20T05:10:18;4.40;;;1.33;;
26906;SDS011;14472;56.880;16.658;2023-12-20T05:12:43;7.37;;;1.27;;
26906;SDS011;14472;56.880;16.658;2023-12-20T05:15:09;5.87;;;1.20;;
26906;SDS011;14472;56.880;16.658;2023-12-20T05:17:35;3.73;;;0.97;;
26906;SDS011;14472;56.880;16.658;2023-12-20T05:20:00;6.33;;;0.90;;
26906;SDS011;14472;56.880;16.658;2023-12-20T05:22:27;6.47;;;1.20;;
26906;SDS011;14472;56.880;16.658;2023-12-20T05:24:52;5.63;;;1.20;;
26906;SDS011;14472;56.880;16.658;2023-12-20T05:27:18;3.67;;;1.23;;
26906;SDS011;14472;56.880;16.658;2023-12-20T05:29:44;8.17;;;1.30;;
26906;SDS011;14472;56.880;16.658;2023-12-20T05:32:10;4.53;;;1.30;;
26906;SDS011;14472;56.880;16.658;2023-12-20T05:34:35;2.57;;;1.00;;
26906;SDS011;14472;56.880;16.658;2023-12-20T05:37:01;6.47;;;1.23;;
26906;SDS011;14472;56.880;16.658;2023-12-20T05:39:27;3.67;;;1.37;;
26906;SDS011;14472;56.880;16.658;2023-12-20T05:41:53;5.43;;;1.40;;
26906;SDS011;14472;56.880;16.658;2023-12-20T05:44:18;6.40;;;1.33;;
26906;SDS011;14472;56.880;16.658;2023-12-20T05:46:44;6.10;;;1.13;;
26906;SDS011;14472;56.880;16.658;2023-12-20T05:49:10;4.83;;;1.30;;
26906;SDS011;14472;56.880;16.658;2023-12-20T05:51:35;7.93;;;1.30;;
26906;SDS011;14472;56.880;16.658;2023-12-20T05:54:01;4.27;;;0.90;;
26906;SDS011;14472;56.880;16.658;2023-12-20T05:56:27;5.47;;;1.23;;
26906;SDS011;14472;56.880;16.658;2023-12-20T05:58:53;2.47;;;1.27;;
26906;SDS011;14472;56.880;16.658;2023-12-20T06:01:18;3.93;;;0.97;;
26906;SDS011;14472;56.880;16.658;2023-12-20T06:03:44;5.30;;;1.23;;
26906;SDS011;14472;56.880;16.658;2023-12-20T06:06:11;4.17;;;1.00;;
26906;SDS011;14472;56.880;16.658;2023-12-20T06:08:37;8.57;;;1.60;;
26906;SDS011;14472;56.880;16.658;2023-12-20T06:11:03;4.17;;;0.90;;
26906;SDS011;14472;56.880;16.658;2023-12-20T06:13:30;2.80;;;1.17;;
26906;SDS011;14472;56.880;16.658;2023-12-20T06:15:56;7.60;;;1.63;;
26906;SDS011;14472;56.880;16.658;2023-12-20T06:18:22;6.47;;;1.20;;
26906;SDS011;14472;56.880;16.658;2023-12-20T06:20:48;4.40;;;1.10;;
26906;SDS011;14472;56.880;16.658;2023-12-20T06:23:14;6.83;;;1.30;;
26906;SDS011;14472;56.880;16.658;2023-12-20T06:25:39;3.83;;;1.10;;
26906;SDS011;14472;56.880;16.658;2023-12-20T06:28:05;3.47;;;1.30;;
26906;SDS011;14472;56.880;16.658;2023-12-20T06:30:31;4.00;;;1.00;;
26906;SDS011;14472;56.880;16.658;2023-12-20T06:32:58;6.50;;;1.00;;
26906;SDS011;14472;56.880;16.658;2023-12-20T06:35:24;3.27;;;1.37;;
26906;SDS011;14472;56.880;16.658;2023-12-20T06:37:50;6.87;;;1.10;;
26906;SDS011;14472;56.880;16.658;2023-12-20T06:40:15;3.33;;;1.20;;
26906;SDS011;14472;56.880;16.658;2023-12-20T06:42:41;5.30;;;1.47;;
26906;SDS011;14472;56.880;16.658;2023-12-20T06:45:07;6.27;;;1.10;;
26906;SDS011;14472;56.880;16.658;2023-12-20T06:47:33;3.53;;;1.20;;
26906;SDS011;14472;56.880;16.658;2023-12-20T06:49:59;4.63;;;1.30;;
26906;SDS011;14472;56.880;16.658;2023-12-20T06:52:25;5.90;;;1.20;;
26906;SDS011;14472;56.880;16.658;2023-12-20T06:54:51;5.17;;;1.10;;
26906;SDS011;14472;56.880;16.658;2023-12-20T06:57:17;3.93;;;1.07;;
26906;SDS011;14472;56.880;16.658;2023-12-20T06:59:44;5.43;;;1.10;;
26906;SDS011;14472;56.880;16.658;2023-12-20T07:02:10;6.00;;;1.23;;
26906;SDS011;14472;56.880;16.658;2023-12-20T07:04:39;4.43;;;0.80;;
26906;SDS011;14472;56.880;16.658;2023-12-20T07:07:05;2.17;;;1.03;;
26906;SDS011;14472;56.880;16.658;2023-12-20T07:09:32;5.17;;;0.93;;
26906;SDS011;14472;56.880;16.658;2023-12-20T07:11:58;5.33;;;1.30;;
26906;SDS011;14472;56.880;16.658;2023-12-20T07:14:24;3.77;;;1.00;;
26906;SDS011;14472;56.880;16.658;2023-12-20T07:16:49;5.87;;;1.40;;
26906;SDS011;14472;56.880;16.658;2023-12-20T07:19:15;4.87;;;1.40;;
26906;SDS011;14472;56.880;16.658;2023-12-20T07:21:41;6.27;;;1.63;;
26906;SDS011;14472;56.880;16.658;2023-12-20T07:24:07;4.50;;;1.10;;
26906;SDS011;14472;56.880;16.658;2023-12-20T07:26:32;8.07;;;1.20;;
26906;SDS011;14472;56.880;16.658;2023-12-20T07:28:59;5.93;;;1.23;;
26906;SDS011;14472;56.880;16.658;2023-12-20T07:31:24;4.10;;;1.20;;
26906;SDS011;14472;56.880;16.658;2023-12-20T07:33:50;3.87;;;1.33;;
26906;SDS011;14472;56.880;16.658;2023-12-20T07:36:16;2.77;;;1.03;;
26906;SDS011;14472;56.880;16.658;2023-12-20T07:38:42;5.13;;;1.20;;
26906;SDS011;14472;56.880;16.658;2023-12-20T07:41:11;7.90;;;1.10;;
26906;SDS011;14472;56.880;16.658;2023-12-20T07:43:37;5.63;;;0.97;;
26906;SDS011;14472;56.880;16.658;2023-12-20T07:46:04;7.13;;;1.40;;
26906;SDS011;14472;56.880;16.658;2023-12-20T07:48:36;4.90;;;1.17;;
26906;SDS011;14472;56.880;16.658;2023-12-20T07:51:02;5.10;;;1.87;;
26906;SDS011;14472;56.880;16.658;2023-12-20T07:53:33;4.67;;;1.30;;
26906;SDS011;14472;56.880;16.658;2023-12-20T07:55:59;7.37;;;1.30;;
26906;SDS011;14472;56.880;16.658;2023-12-20T07:58:25;6.30;;;1.33;;
26906;SDS011;14472;56.880;16.658;2023-12-20T08:00:50;4.83;;;1.30;;
26906;SDS011;14472;56.880;16.658;2023-12-20T08:03:16;5.20;;;1.60;;
26906;SDS011;14472;56.880;16.658;2023-12-20T08:05:42;5.67;;;1.23;;
26906;SDS011;14472;56.880;16.658;2023-12-20T08:08:07;3.20;;;1.10;;
26906;SDS011;14472;56.880;16.658;2023-12-20T08:10:33;6.10;;;1.33;;
26906;SDS011;14472;56.880;16.658;2023-12-20T08:13:00;6.87;;;1.33;;
26906;SDS011;14472;56.880;16.658;2023-12-20T08:15:26;6.40;;;1.50;;
26906;SDS011;14472;56.880;16.658;2023-12-20T08:17:51;5.67;;;1.60;;
26906;SDS011;14472;56.880;16.658;2023-12-20T08:20:17;6.90;;;1.63;;
26906;SDS011;14472;56.880;16.658;2023-12-20T08:22:43;3.73;;;1.13;;
26906;SDS011;14472;56.880;16.658;2023-12-20T08:25:08;8.03;;;1.50;;
26906;SDS011;14472;56.880;16.658;2023-12-20T08:27:39;13.77;;;2.13;;
26906;SDS011;14472;56.880;16.658;2023-12-20T08:30:05;5.00;;;1.60;;
26906;SDS011;14472;56.880;16.658;2023-12-20T08:32:33;9.30;;;1.80;;
26906;SDS011;14472;56.880;16.658;2023-12-20T08:34:59;8.33;;;1.67;;
26906;SDS011;14472;56.880;16.658;2023-12-20T08:37:25;4.60;;;1.37;;
26906;SDS011;14472;56.880;16.658;2023-12-20T08:39:50;6.57;;;1.40;;
26906;SDS011;14472;56.880;16.658;2023-12-20T08:42:16;4.07;;;1.30;;
26906;SDS011;14472;56.880;16.658;2023-12-20T08:44:42;3.93;;;1.77;;
26906;SDS011;14472;56.880;16.658;2023-12-20T08:47:07;7.10;;;1.90;;
26906;SDS011;14472;56.880;16.658;2023-12-20T08:49:33;7.33;;;1.57;;
26906;SDS011;14472;56.880;16.658;2023-12-20T08:51:59;5.47;;;1.63;;
26906;SDS011;14472;56.880;16.658;2023-12-20T08:54:25;5.70;;;1.90;;
26906;SDS011;14472;56.880;16.658;2023-12-20T08:56:50;7.07;;;2.00;;
26906;SDS011;14472;56.880;16.658;2023-12-20T08:59:16;8.47;;;2.30;;
26906;SDS011;14472;56.880;16.658;2023-12-20T09:01:43;4.20;;;1.70;;
26906;SDS011;14472;56.880;16.658;2023-12-20T09:04:09;10.70;;;1.97;;
26906;SDS011;14472;56.880;16.658;2023-12-20T09:06:35;10.40;;;1.77;;
26906;SDS011;14472;56.880;16.658;2023-12-20T09:09:00;8.17;;;1.90;;
26906;SDS011;14472;56.880;16.658;2023-12-20T09:11:26;4.70;;;1.50;;
26906;SDS011;14472;56.880;16.658;2023-12-20T09:13:52;5.17;;;1.50;;
26906;SDS011;14472;56.880;16.658;2023-12-20T09:16:17;6.17;;;1.70;;
26906;SDS011;14472;56.880;16.658;2023-12-20T09:18:43;5.13;;;1.67;;
26906;SDS011;14472;56.880;16.658;2023-12-20T09:21:09;4.43;;;1.30;;
26906;SDS011;14472;56.880;16.658;2023-12-20T09:23:34;5.50;;;1.53;;
26906;SDS011;14472;56.880;16.658;2023-12-20T09:26:01;7.03;;;1.43;;
26906;SDS011;14472;56.880;16.658;2023-12-20T09:28:27;5.27;;;1.50;;
26906;SDS011;14472;56.880;16.658;2023-12-20T09:30:53;7.93;;;1.67;;
26906;SDS011;14472;56.880;16.658;2023-12-20T09:33:19;6.00;;;1.20;;
26906;SDS011;14472;56.880;16.658;2023-12-20T09:35:44;4.80;;;1.70;;
26906;SDS011;14472;56.880;16.658;2023-12-20T09:38:10;2.90;;;1.30;;
26906;SDS011;14472;56.880;16.658;2023-12-20T09:40:37;4.20;;;1.20;;
26906;SDS011;14472;56.880;16.658;2023-12-20T09:43:16;6.87;;;1.30;;
26906;SDS011;14472;56.880;16.658;2023-12-20T09:45:45;8.63;;;1.73;;
26906;SDS011;14472;56.880;16.658;2023-12-20T09:48:12;5.20;;;1.40;;
26906;SDS011;14472;56.880;16.658;2023-12-20T09:50:41;3.77;;;1.07;;
26906;SDS011;14472;56.880;16.658;2023-12-20T09:53:10;4.93;;;1.00;;
26906;SDS011;14472;56.880;16.658;2023-12-20T09:55:40;3.33;;;1.13;;
26906;SDS011;14472;56.880;16.658;2023-12-20T09:58:07;5.67;;;1.27;;
26906;SDS011;14472;56.880;16.658;2023-12-20T10:00:34;8.87;;;1.50;;
26906;SDS011;14472;56.880;16.658;2023-12-20T10:03:00;2.97;;;1.00;;
26906;SDS011;14472;56.880;16.658;2023-12-20T10:05:30;2.87;;;1.00;;
26906;SDS011;14472;56.880;16.658;2023-12-20T10:07:57;8.23;;;1.47;;
26906;SDS011;14472;56.880;16.658;2023-12-20T10:10:24;8.83;;;1.23;;
26906;SDS011;14472;56.880;16.658;2023-12-20T10:13:06;5.03;;;1.30;;
26906;SDS011;14472;56.880;16.658;2023-12-20T10:15:36;5.37;;;1.27;;
26906;SDS011;14472;56.880;16.658;2023-12-20T10:18:03;3.37;;;1.00;;
26906;SDS011;14472;56.880;16.658;2023-12-20T10:20:29;4.30;;;0.90;;
26906;SDS011;14472;56.880;16.658;2023-12-20T10:22:56;5.37;;;1.23;;
26906;SDS011;14472;56.880;16.658;2023-12-20T10:25:25;3.30;;;1.23;;
26906;SDS011;14472;56.880;16.658;2023-12-20T10:28:10;2.63;;;0.90;;
26906;SDS011;14472;56.880;16.658;2023-12-20T10:30:44;5.83;;;1.17;;
26906;SDS011;14472;56.880;16.658;2023-12-20T10:33:09;2.53;;;0.90;;
26906;SDS011;14472;56.880;16.658;2023-12-20T10:35:37;5.20;;;1.10;;
26906;SDS011;14472;56.880;16.658;2023-12-20T10:38:04;4.73;;;0.80;;
26906;SDS011;14472;56.880;16.658;2023-12-20T10:40:30;1.17;;;0.70;;
26906;SDS011;14472;56.880;16.658;2023-12-20T10:42:59;3.03;;;0.80;;
26906;SDS011;14472;56.880;16.658;2023-12-20T10:45:26;2.97;;;0.90;;
26906;SDS011;14472;56.880;16.658;2023-12-20T10:47:51;2.77;;;0.80;;
26906;SDS011;14472;56.880;16.658;2023-12-20T10:50:18;2.90;;;0.70;;
26906;SDS011;14472;56.880;16.658;2023-12-20T10:52:45;1.33;;;0.90;;
26906;SDS011;14472;56.880;16.658;2023-12-20T10:55:11;0.73;;;0.50;;
26906;SDS011;14472;56.880;16.658;2023-12-20T10:57:37;6.17;;;0.97;;
26906;SDS011;14472;56.880;16.658;2023-12-20T11:00:04;1.83;;;0.60;;
26906;SDS011;14472;56.880;16.658;2023-12-20T11:02:34;1.17;;;0.63;;
26906;SDS011;14472;56.880;16.658;2023-12-20T11:05:13;0.97;;;0.67;;
26906;SDS011;14472;56.880;16.658;2023-12-20T11:07:48;0.80;;;0.80;;
26906;SDS011;14472;56.880;16.658;2023-12-20T11:10:30;1.40;;;0.60;;
26906;SDS011;14472;56.880;16.658;2023-12-20T11:15:46;2.33;;;0.60;;
26906;SDS011;14472;56.880;16.658;2023-12-20T11:18:12;1.10;;;0.70;;
26906;SDS011;14472;56.880;16.658;2023-12-20T11:20:39;2.20;;;0.70;;
26906;SDS011;14472;56.880;16.658;2023-12-20T11:23:06;0.60;;;0.50;;
26906;SDS011;14472;56.880;16.658;2023-12-20T11:25:46;0.90;;;0.60;;
26906;SDS011;14472;56.880;16.658;2023-12-20T11:28:12;2.43;;;0.70;;
26906;SDS011;14472;56.880;16.658;2023-12-20T11:30:48;1.20;;;0.50;;
26906;SDS011;14472;56.880;16.658;2023-12-20T11:33:25;0.77;;;0.50;;
26906;SDS011;14472;56.880;16.658;2023-12-20T11:35:55;1.23;;;0.67;;
26906;SDS011;14472;56.880;16.658;2023-12-20T11:38:22;1.90;;;0.80;;
26906;SDS011;14472;56.880;16.658;2023-12-20T11:40:48;1.80;;;0.50;;
26906;SDS011;14472;56.880;16.658;2023-12-20T11:46:06;0.73;;;0.60;;
26906;SDS011;14472;56.880;16.658;2023-12-20T11:48:34;2.57;;;0.80;;
26906;SDS011;14472;56.880;16.658;2023-12-20T11:51:02;0.40;;;0.40;;
26906;SDS011;14472;56.880;16.658;2023-12-20T11:53:29;0.60;;;0.60;;
26906;SDS011;14472;56.880;16.658;2023-12-20T11:55:56;2.60;;;0.50;;
26906;SDS011;14472;56.880;16.658;2023-12-20T11:58:21;0.67;;;0.50;;
26906;SDS011;14472;56.880;16.658;2023-12-20T12:00:48;2.10;;;0.70;;
26906;SDS011;14472;56.880;16.658;2023-12-20T12:03:15;4.40;;;0.73;;
26906;SDS011;14472;56.880;16.658;2023-12-20T12:05:41;2.33;;;0.50;;
26906;SDS011;14472;56.880;16.658;2023-12-20T12:08:06;0.50;;;0.40;;
26906;SDS011;14472;56.880;16.658;2023-12-20T12:10:33;0.70;;;0.70;;
26906;SDS011;14472;56.880;16.658;2023-12-20T12:12:58;1.90;;;0.50;;
26906;SDS011;14472;56.880;16.658;2023-12-20T12:15:25;2.17;;;0.53;;
26906;SDS011;14472;56.880;16.658;2023-12-20T12:17:54;2.63;;;0.63;;
26906;SDS011;14472;56.880;16.658;2023-12-20T12:20:21;0.70;;;0.70;;
26906;SDS011;14472;56.880;16.658;2023-12-20T12:23:01;1.27;;;0.40;;
26906;SDS011;14472;56.880;16.658;2023-12-20T12:25:32;2.07;;;0.60;;
26906;SDS011;14472;56.880;16.658;2023-12-20T12:27:59;1.00;;;0.50;;
26906;SDS011;14472;56.880;16.658;2023-12-20T12:30:26;0.83;;;0.40;;
26906;SDS011;14472;56.880;16.658;2023-12-20T12:32:52;1.13;;;0.40;;
26906;SDS011;14472;56.880;16.658;2023-12-20T12:35:19;0.70;;;0.50;;
26906;SDS011;14472;56.880;16.658;2023-12-20T12:37:45;0.70;;;0.50;;
26906;SDS011;14472;56.880;16.658;2023-12-20T12:40:12;1.10;;;0.50;;
26906;SDS011;14472;56.880;16.658;2023-12-20T12:42:40;4.53;;;0.50;;
26906;SDS011;14472;56.880;16.658;2023-12-20T12:45:06;0.87;;;0.50;;
26906;SDS011;14472;56.880;16.658;2023-12-20T12:47:32;2.63;;;0.50;;
26906;SDS011;14472;56.880;16.658;2023-12-20T12:49:59;2.00;;;0.60;;
26906;SDS011;14472;56.880;16.658;2023-12-20T12:52:25;0.80;;;0.50;;
26906;SDS011;14472;56.880;16.658;2023-12-20T12:54:52;1.60;;;0.73;;
26906;SDS011;14472;56.880;16.658;2023-12-20T12:57:18;1.40;;;0.50;;
26906;SDS011;14472;56.880;16.658;2023-12-20T12:59:45;1.47;;;0.50;;
26906;SDS011;14472;56.880;16.658;2023-12-20T13:02:12;0.47;;;0.47;;
26906;SDS011;14472;56.880;16.658;2023-12-20T13:04:38;1.37;;;0.90;;
26906;SDS011;14472;56.880;16.658;2023-12-20T13:07:08;1.87;;;0.40;;
26906;SDS011;14472;56.880;16.658;2023-12-20T13:09:38;1.37;;;0.40;;
26906;SDS011;14472;56.880;16.658;2023-12-20T13:12:04;1.80;;;0.50;;
26906;SDS011;14472;56.880;16.658;2023-12-20T13:14:33;0.67;;;0.40;;
26906;SDS011;14472;56.880;16.658;2023-12-20T13:17:00;0.73;;;0.40;;
26906;SDS011;14472;56.880;16.658;2023-12-20T13:19:26;0.93;;;0.40;;
26906;SDS011;14472;56.880;16.658;2023-12-20T13:21:52;0.43;;;0.43;;
26906;SDS011;14472;56.880;16.658;2023-12-20T13:24:18;0.40;;;0.40;;
26906;SDS011;14472;56.880;16.658;2023-12-20T13:26:44;2.10;;;0.40;;
26906;SDS011;14472;56.880;16.658;2023-12-20T13:29:09;0.83;;;0.50;;
26906;SDS011;14472;56.880;16.658;2023-12-20T13:31:35;0.30;;;0.30;;
26906;SDS011;14472;56.880;16.658;2023-12-20T13:34:02;0.93;;;0.40;;
26906;SDS011;14472;56.880;16.658;2023-12-20T13:36:28;1.53;;;0.43;;
26906;SDS011;14472;56.880;16.658;2023-12-20T13:38:53;0.77;;;0.53;;
26906;SDS011;14472;56.880;16.658;2023-12-20T13:41:19;0.60;;;0.50;;
26906;SDS011;14472;56.880;16.658;2023-12-20T13:43:45;1.13;;;0.50;;
26906;SDS011;14472;56.880;16.658;2023-12-20T13:46:11;1.33;;;0.50;;
26906;SDS011;14472;56.880;16.658;2023-12-20T13:48:36;0.30;;;0.30;;
26906;SDS011;14472;56.880;16.658;2023-12-20T13:51:03;3.63;;;0.60;;
26906;SDS011;14472;56.880;16.658;2023-12-20T13:53:28;2.00;;;0.50;;
26906;SDS011;14472;56.880;16.658;2023-12-20T13:55:54;0.70;;;0.50;;
26906;SDS011;14472;56.880;16.658;2023-12-20T13:58:20;0.73;;;0.70;;
26906;SDS011;14472;56.880;16.658;2023-12-20T14:00:46;0.57;;;0.47;;
26906;SDS011;14472;56.880;16.658;2023-12-20T14:03:11;1.53;;;0.60;;
26906;SDS011;14472;56.880;16.658;2023-12-20T14:05:37;2.43;;;0.70;;
26906;SDS011;14472;56.880;16.658;2023-12-20T14:08:03;2.00;;;0.53;;
26906;SDS011;14472;56.880;16.658;2023-12-20T14:10:29;1.77;;;0.67;;
26906;SDS011;14472;56.880;16.658;2023-12-20T14:12:55;0.77;;;0.77;;
26906;SDS011;14472;56.880;16.658;2023-12-20T14:15:21;3.97;;;0.70;;
26906;SDS011;14472;56.880;16.658;2023-12-20T14:17:46;1.77;;;0.80;;
26906;SDS011;14472;56.880;16.658;2023-12-20T14:20:12;1.80;;;0.77;;
26906;SDS011;14472;56.880;16.658;2023-12-20T14:22:38;0.60;;;0.60;;
26906;SDS011;14472;56.880;16.658;2023-12-20T14:25:08;2.50;;;1.03;;
26906;SDS011;14472;56.880;16.658;2023-12-20T14:27:37;1.90;;;0.80;;
26906;SDS011;14472;56.880;16.658;2023-12-20T14:30:03;2.17;;;0.70;;
26906;SDS011;14472;56.880;16.658;2023-12-20T14:32:29;3.17;;;1.17;;
26906;SDS011;14472;56.880;16.658;2023-12-20T14:34:56;2.67;;;0.70;;